Zim Mumbai — P3BA7 — position and weather

sailwx.info

Track history (hours):
 
Tides and Currents Weather Stations Pressure Air Temp Water Temp Dewpoint Dewpoint Depression Visibility Wind Speed Wind Dir Waves Ship Positions

Zim Mumbai

Last reported at 2014-Apr-08 18:33 UTC. Time now 2014-Jul-31 01:25 UTC.
Position N 25°33' E 055°07'.
Warning: this ship's position is months out of date.

Length 195.7 m; beam 32.3 m; draft 11.5 m.

MMSI: 212160000.

Date/timePositionNaut miles runAvg speedWind from/ knotsBaromVisibWave heightAir tempDewpointWater temp
2014-Apr-08 18:33N 25°33' E 055°07'3210.7
2014-Apr-08 15:32N 25°01' E 055°03'0 0.0
2014-Apr-08 14:32N 25°01' E 055°03'7 0.2
2014-Apr-07 10:06N 25°06' E 054°57'3 6.3
2014-Apr-07 09:33N 25°08' E 054°54'1 0.8
2014-Apr-07 08:33N 25°07' E 054°54'0 0.0
2014-Apr-07 07:33N 25°07' E 054°54'0 0.1
2014-Apr-07 06:33N 25°07' E 054°54'0 0.1
2014-Apr-07 05:33N 25°07' E 054°54'1 1.2
2014-Apr-07 04:33N 25°07' E 054°52'1313.0
2014-Apr-07 03:34N 24°59' E 054°41'1010.3
2014-Apr-07 02:33N 24°49' E 054°40'1 0.7
2014-Apr-07 01:28N 24°48' E 054°39'0 0.0
2014-Apr-06 22:27N 24°48' E 054°39'0 0.0
2014-Apr-06 21:18N 24°48' E 054°39'0 0.0
2014-Apr-06 20:11N 24°48' E 054°39'0 0.0
2014-Apr-06 19:31N 24°48' E 054°39'0 0.0
2014-Apr-06 18:31N 24°48' E 054°39'0 0.0
2014-Apr-06 17:33N 24°48' E 054°39'0 0.0
2014-Apr-06 16:27N 24°48' E 054°39'0 0.0
2014-Apr-06 15:33N 24°48' E 054°39'0 0.0
2014-Apr-06 14:32N 24°48' E 054°39'2 2.1
2014-Apr-06 13:33N 24°50' E 054°40'10 9.9
2014-Apr-06 12:34N 24°60' E 054°39'1413.6
2014-Apr-06 11:33N 25°05' E 054°53'2 0.1
2014-Apr-05 05:17N 25°08' E 054°53'710.0
2014-Apr-05 04:33N 25°11' E 054°46'1414.0
2014-Apr-05 03:33N 25°16' E 054°32'1413.7
2014-Apr-05 02:33N 25°21' E 054°17'1414.0
2014-Apr-05 01:33N 25°29' E 054°05'1414.0
2014-Apr-05 00:33N 25°38' E 053°53'1414.0
2014-Apr-04 23:33N 25°46' E 053°41'1414.1
2014-Apr-04 22:33N 25°55' E 053°29'1414.3
2014-Apr-04 21:33N 26°04' E 053°16'1514.7
2014-Apr-04 20:33N 26°16' E 053°06'1614.7
2014-Apr-04 19:30N 26°29' E 052°56'1614.6
2014-Apr-04 18:25N 26°41' E 052°45'1214.2
2014-Apr-04 17:33N 26°49' E 052°35'1312.8
2014-Apr-04 16:34N 27°00' E 052°28'1414.2
2014-Apr-04 15:33N 27°06' E 052°13'1514.3
2014-Apr-04 14:28N 27°12' E 051°57'  
2014-Mar-31 03:20N 26°25' E 050°53'1013.1
2014-Mar-31 02:34N 26°17' E 050°47'7 6.5
2014-Mar-31 01:29N 26°11' E 050°43'0 0.0
2014-Mar-31 00:30N 26°11' E 050°43'0 0.0
2014-Mar-30 23:25N 26°11' E 050°43'0 0.0
2014-Mar-30 22:15N 26°11' E 050°43'0 0.0
2014-Mar-30 21:33N 26°11' E 050°43'92 5.7
2014-Mar-30 05:24N 27°00' E 052°09'1315.6
2014-Mar-30 04:33N 26°60' E 052°24'1514.7
2014-Mar-30 03:33N 26°51' E 052°37'1716.6
2014-Mar-30 02:31N 26°37' E 052°48'1616.3
2014-Mar-30 01:33N 26°24' E 052°59'1616.3
2014-Mar-30 00:33N 26°12' E 053°10'1616.4
2014-Mar-29 23:33N 25°60' E 053°23'1716.6
2014-Mar-29 22:33N 25°50' E 053°37'1716.6
2014-Mar-29 21:33N 25°39' E 053°51'2116.7
2014-Mar-29 20:18N 25°26' E 054°10'1416.5
2014-Mar-29 19:26N 25°18' E 054°23'  
Track history (hours):
 
Tides and Currents Weather Stations Pressure Air Temp Water Temp Dewpoint Dewpoint Depression Visibility Wind Speed Wind Dir Waves Ship Positions

Zim Mumbai

Last reported at 2014-Apr-08 18:33 UTC. Time now 2014-Jul-31 01:25 UTC.
Position N 25°33' E 055°07'.
Warning: this ship's position is months out of date.

Length 195.7 m; beam 32.3 m; draft 11.5 m.

MMSI: 212160000.

Date/timePositionNaut miles runAvg speedWind from/ knotsBaromVisibWave heightAir tempDewpointWater temp
2014-Apr-08 18:33N 25°33' E 055°07'3210.7
2014-Apr-08 15:32N 25°01' E 055°03'0 0.0
2014-Apr-08 14:32N 25°01' E 055°03'7 0.2
2014-Apr-07 10:06N 25°06' E 054°57'3 6.3
2014-Apr-07 09:33N 25°08' E 054°54'1 0.8
2014-Apr-07 08:33N 25°07' E 054°54'0 0.0
2014-Apr-07 07:33N 25°07' E 054°54'0 0.1
2014-Apr-07 06:33N 25°07' E 054°54'0 0.1
2014-Apr-07 05:33N 25°07' E 054°54'1 1.2
2014-Apr-07 04:33N 25°07' E 054°52'1313.0
2014-Apr-07 03:34N 24°59' E 054°41'1010.3
2014-Apr-07 02:33N 24°49' E 054°40'1 0.7
2014-Apr-07 01:28N 24°48' E 054°39'0 0.0
2014-Apr-06 22:27N 24°48' E 054°39'0 0.0
2014-Apr-06 21:18N 24°48' E 054°39'0 0.0
2014-Apr-06 20:11N 24°48' E 054°39'0 0.0
2014-Apr-06 19:31N 24°48' E 054°39'0 0.0
2014-Apr-06 18:31N 24°48' E 054°39'0 0.0
2014-Apr-06 17:33N 24°48' E 054°39'0 0.0
2014-Apr-06 16:27N 24°48' E 054°39'0 0.0
2014-Apr-06 15:33N 24°48' E 054°39'0 0.0
2014-Apr-06 14:32N 24°48' E 054°39'2 2.1
2014-Apr-06 13:33N 24°50' E 054°40'10 9.9
2014-Apr-06 12:34N 24°60' E 054°39'1413.6
2014-Apr-06 11:33N 25°05' E 054°53'2 0.1
2014-Apr-05 05:17N 25°08' E 054°53'710.0
2014-Apr-05 04:33N 25°11' E 054°46'1414.0
2014-Apr-05 03:33N 25°16' E 054°32'1413.7
2014-Apr-05 02:33N 25°21' E 054°17'1414.0
2014-Apr-05 01:33N 25°29' E 054°05'1414.0
2014-Apr-05 00:33N 25°38' E 053°53'1414.0
2014-Apr-04 23:33N 25°46' E 053°41'1414.1
2014-Apr-04 22:33N 25°55' E 053°29'1414.3
2014-Apr-04 21:33N 26°04' E 053°16'1514.7
2014-Apr-04 20:33N 26°16' E 053°06'1614.7
2014-Apr-04 19:30N 26°29' E 052°56'1614.6
2014-Apr-04 18:25N 26°41' E 052°45'1214.2
2014-Apr-04 17:33N 26°49' E 052°35'1312.8
2014-Apr-04 16:34N 27°00' E 052°28'1414.2
2014-Apr-04 15:33N 27°06' E 052°13'1514.3
2014-Apr-04 14:28N 27°12' E 051°57'  
2014-Mar-31 03:20N 26°25' E 050°53'1013.1
2014-Mar-31 02:34N 26°17' E 050°47'7 6.5
2014-Mar-31 01:29N 26°11' E 050°43'0 0.0
2014-Mar-31 00:30N 26°11' E 050°43'0 0.0
2014-Mar-30 23:25N 26°11' E 050°43'0 0.0
2014-Mar-30 22:15N 26°11' E 050°43'0 0.0
2014-Mar-30 21:33N 26°11' E 050°43'92 5.7
2014-Mar-30 05:24N 27°00' E 052°09'1315.6
2014-Mar-30 04:33N 26°60' E 052°24'1514.7
2014-Mar-30 03:33N 26°51' E 052°37'1716.6
2014-Mar-30 02:31N 26°37' E 052°48'1616.3
2014-Mar-30 01:33N 26°24' E 052°59'1616.3
2014-Mar-30 00:33N 26°12' E 053°10'1616.4
2014-Mar-29 23:33N 25°60' E 053°23'1716.6
2014-Mar-29 22:33N 25°50' E 053°37'1716.6
2014-Mar-29 21:33N 25°39' E 053°51'2116.7
2014-Mar-29 20:18N 25°26' E 054°10'1416.5
2014-Mar-29 19:26N 25°18' E 054°23'  

Dump ship's entire track history